sensor_id;sensor_type;location;lat;lon;timestamp;temperature;humidity
50548;DHT22;38013;48.810;8.818;2023-03-23T00:01:22;15.50;53.70
50548;DHT22;38013;48.810;8.818;2023-03-23T00:03:51;15.50;53.70
50548;DHT22;38013;48.810;8.818;2023-03-23T00:06:19;15.50;53.80
50548;DHT22;38013;48.810;8.818;2023-03-23T00:08:48;15.50;53.90
50548;DHT22;38013;48.810;8.818;2023-03-23T00:11:20;15.50;53.80
50548;DHT22;38013;48.810;8.818;2023-03-23T00:13:48;15.50;53.90
50548;DHT22;38013;48.810;8.818;2023-03-23T00:16:23;15.50;53.90
50548;DHT22;38013;48.810;8.818;2023-03-23T00:19:11;15.50;54.00
50548;DHT22;38013;48.810;8.818;2023-03-23T00:21:40;15.50;54.00
50548;DHT22;38013;48.810;8.818;2023-03-23T00:24:15;15.40;54.00
50548;DHT22;38013;48.810;8.818;2023-03-23T00:26:43;15.40;54.10
50548;DHT22;38013;48.810;8.818;2023-03-23T00:29:16;15.40;54.30
50548;DHT22;38013;48.810;8.818;2023-03-23T00:31:49;15.40;54.30
50548;DHT22;38013;48.810;8.818;2023-03-23T00:34:20;15.40;54.30
50548;DHT22;38013;48.810;8.818;2023-03-23T00:36:48;15.40;54.50
50548;DHT22;38013;48.810;8.818;2023-03-23T00:39:16;15.40;54.50
50548;DHT22;38013;48.810;8.818;2023-03-23T00:41:46;15.40;54.60
50548;DHT22;38013;48.810;8.818;2023-03-23T00:44:13;15.30;54.60
50548;DHT22;38013;48.810;8.818;2023-03-23T00:46:46;15.30;54.60
50548;DHT22;38013;48.810;8.818;2023-03-23T00:49:15;15.40;54.70
50548;DHT22;38013;48.810;8.818;2023-03-23T00:51:42;15.30;54.70
50548;DHT22;38013;48.810;8.818;2023-03-23T00:54:09;15.30;54.70
50548;DHT22;38013;48.810;8.818;2023-03-23T00:56:36;15.30;54.90
50548;DHT22;38013;48.810;8.818;2023-03-23T00:59:02;15.30;54.90
50548;DHT22;38013;48.810;8.818;2023-03-23T01:01:29;15.30;54.90
50548;DHT22;38013;48.810;8.818;2023-03-23T01:03:58;15.20;54.90
50548;DHT22;38013;48.810;8.818;2023-03-23T01:06:35;15.20;55.10
50548;DHT22;38013;48.810;8.818;2023-03-23T01:09:12;15.20;55.10
50548;DHT22;38013;48.810;8.818;2023-03-23T01:11:44;15.20;55.10
50548;DHT22;38013;48.810;8.818;2023-03-23T01:14:10;15.20;55.00
50548;DHT22;38013;48.810;8.818;2023-03-23T01:16:37;15.20;54.80
50548;DHT22;38013;48.810;8.818;2023-03-23T01:19:03;15.20;54.80
50548;DHT22;38013;48.810;8.818;2023-03-23T01:21:29;15.10;54.90
50548;DHT22;38013;48.810;8.818;2023-03-23T01:23:55;15.10;55.10
50548;DHT22;38013;48.810;8.818;2023-03-23T01:26:23;15.10;55.10
50548;DHT22;38013;48.810;8.818;2023-03-23T01:28:50;15.00;55.10
50548;DHT22;38013;48.810;8.818;2023-03-23T01:31:20;15.00;55.10
50548;DHT22;38013;48.810;8.818;2023-03-23T01:33:47;15.00;55.30
50548;DHT22;38013;48.810;8.818;2023-03-23T01:36:25;14.90;55.30
50548;DHT22;38013;48.810;8.818;2023-03-23T01:38:57;14.90;55.50
50548;DHT22;38013;48.810;8.818;2023-03-23T01:41:24;14.90;55.50
50548;DHT22;38013;48.810;8.818;2023-03-23T01:46:32;14.90;55.60
50548;DHT22;38013;48.810;8.818;2023-03-23T01:49:09;14.80;55.70
50548;DHT22;38013;48.810;8.818;2023-03-23T01:51:42;14.80;55.80
50548;DHT22;38013;48.810;8.818;2023-03-23T01:54:13;14.80;55.80
50548;DHT22;38013;48.810;8.818;2023-03-23T01:56:53;14.80;55.90
50548;DHT22;38013;48.810;8.818;2023-03-23T01:59:23;14.80;55.90
50548;DHT22;38013;48.810;8.818;2023-03-23T02:02:07;14.70;56.00
50548;DHT22;38013;48.810;8.818;2023-03-23T02:04:33;14.70;56.00
50548;DHT22;38013;48.810;8.818;2023-03-23T02:06:59;14.70;56.00
50548;DHT22;38013;48.810;8.818;2023-03-23T02:09:27;14.70;56.10
50548;DHT22;38013;48.810;8.818;2023-03-23T02:11:54;14.70;56.20
50548;DHT22;38013;48.810;8.818;2023-03-23T02:14:22;14.60;56.20
50548;DHT22;38013;48.810;8.818;2023-03-23T02:17:12;14.60;56.20
50548;DHT22;38013;48.810;8.818;2023-03-23T02:20:18;14.60;56.40
50548;DHT22;38013;48.810;8.818;2023-03-23T02:23:18;14.60;56.40
50548;DHT22;38013;48.810;8.818;2023-03-23T02:26:01;14.60;56.30
50548;DHT22;38013;48.810;8.818;2023-03-23T02:35:44;14.50;56.40
50548;DHT22;38013;48.810;8.818;2023-03-23T02:38:19;14.50;56.20
50548;DHT22;38013;48.810;8.818;2023-03-23T02:40:59;14.50;56.50
50548;DHT22;38013;48.810;8.818;2023-03-23T02:43:29;14.50;56.40
50548;DHT22;38013;48.810;8.818;2023-03-23T02:45:59;14.50;56.50
50548;DHT22;38013;48.810;8.818;2023-03-23T02:48:28;14.50;56.50
50548;DHT22;38013;48.810;8.818;2023-03-23T02:50:55;14.50;56.50
50548;DHT22;38013;48.810;8.818;2023-03-23T02:53:23;14.50;56.60
50548;DHT22;38013;48.810;8.818;2023-03-23T02:55:52;14.50;56.60
50548;DHT22;38013;48.810;8.818;2023-03-23T02:58:21;14.60;56.60
50548;DHT22;38013;48.810;8.818;2023-03-23T03:00:51;14.60;56.70
50548;DHT22;38013;48.810;8.818;2023-03-23T03:03:23;14.60;56.70
50548;DHT22;38013;48.810;8.818;2023-03-23T03:06:29;14.60;56.60
50548;DHT22;38013;48.810;8.818;2023-03-23T03:09:30;14.60;56.60
50548;DHT22;38013;48.810;8.818;2023-03-23T03:12:04;14.70;56.60
50548;DHT22;38013;48.810;8.818;2023-03-23T03:14:55;14.70;56.60
50548;DHT22;38013;48.810;8.818;2023-03-23T03:17:26;14.70;56.50
50548;DHT22;38013;48.810;8.818;2023-03-23T03:20:02;14.70;56.50
50548;DHT22;38013;48.810;8.818;2023-03-23T03:22:38;14.80;56.40
50548;DHT22;38013;48.810;8.818;2023-03-23T03:25:08;14.80;56.40
50548;DHT22;38013;48.810;8.818;2023-03-23T03:27:40;14.80;56.30
50548;DHT22;38013;48.810;8.818;2023-03-23T03:30:16;14.80;56.30
50548;DHT22;38013;48.810;8.818;2023-03-23T03:32:48;14.80;56.30
50548;DHT22;38013;48.810;8.818;2023-03-23T03:35:17;14.90;56.40
50548;DHT22;38013;48.810;8.818;2023-03-23T03:37:43;14.90;56.20
50548;DHT22;38013;48.810;8.818;2023-03-23T03:40:13;14.90;56.20
50548;DHT22;38013;48.810;8.818;2023-03-23T03:42:44;14.90;56.20
50548;DHT22;38013;48.810;8.818;2023-03-23T03:45:13;15.00;56.20
50548;DHT22;38013;48.810;8.818;2023-03-23T03:47:41;15.00;56.10
50548;DHT22;38013;48.810;8.818;2023-03-23T03:50:08;15.00;56.10
50548;DHT22;38013;48.810;8.818;2023-03-23T03:52:35;15.10;56.10
50548;DHT22;38013;48.810;8.818;2023-03-23T03:55:05;15.10;56.00
50548;DHT22;38013;48.810;8.818;2023-03-23T03:57:33;15.10;55.90
50548;DHT22;38013;48.810;8.818;2023-03-23T04:00:23;15.10;55.90
50548;DHT22;38013;48.810;8.818;2023-03-23T04:02:50;15.10;55.90
50548;DHT22;38013;48.810;8.818;2023-03-23T04:05:50;15.20;55.90
50548;DHT22;38013;48.810;8.818;2023-03-23T04:08:16;15.20;55.80
50548;DHT22;38013;48.810;8.818;2023-03-23T04:10:43;15.20;55.70
50548;DHT22;38013;48.810;8.818;2023-03-23T04:13:09;15.20;55.80
50548;DHT22;38013;48.810;8.818;2023-03-23T04:16:05;15.20;55.80
50548;DHT22;38013;48.810;8.818;2023-03-23T04:18:33;15.20;55.70
50548;DHT22;38013;48.810;8.818;2023-03-23T04:21:01;15.20;55.70
50548;DHT22;38013;48.810;8.818;2023-03-23T04:23:29;15.30;55.80
50548;DHT22;38013;48.810;8.818;2023-03-23T04:26:02;15.20;55.70
50548;DHT22;38013;48.810;8.818;2023-03-23T04:28:34;15.20;55.60
50548;DHT22;38013;48.810;8.818;2023-03-23T04:31:19;15.20;55.70
50548;DHT22;38013;48.810;8.818;2023-03-23T04:33:51;15.20;55.60
50548;DHT22;38013;48.810;8.818;2023-03-23T04:36:20;15.30;55.70
50548;DHT22;38013;48.810;8.818;2023-03-23T04:38:56;15.30;55.70
50548;DHT22;38013;48.810;8.818;2023-03-23T04:41:23;15.30;55.70
50548;DHT22;38013;48.810;8.818;2023-03-23T04:44:08;15.30;55.60
50548;DHT22;38013;48.810;8.818;2023-03-23T04:46:44;15.30;55.80
50548;DHT22;38013;48.810;8.818;2023-03-23T04:49:16;15.30;55.60
50548;DHT22;38013;48.810;8.818;2023-03-23T04:51:48;15.30;55.60
50548;DHT22;38013;48.810;8.818;2023-03-23T04:54:22;15.30;55.60
50548;DHT22;38013;48.810;8.818;2023-03-23T04:56:53;15.30;55.60
50548;DHT22;38013;48.810;8.818;2023-03-23T04:59:19;15.30;55.60
50548;DHT22;38013;48.810;8.818;2023-03-23T05:01:56;15.30;55.70
50548;DHT22;38013;48.810;8.818;2023-03-23T05:04:23;15.30;55.80
50548;DHT22;38013;48.810;8.818;2023-03-23T05:07:11;15.30;55.70
50548;DHT22;38013;48.810;8.818;2023-03-23T05:09:47;15.30;55.70
50548;DHT22;38013;48.810;8.818;2023-03-23T05:12:14;15.30;55.70
50548;DHT22;38013;48.810;8.818;2023-03-23T05:15:07;15.30;55.60
50548;DHT22;38013;48.810;8.818;2023-03-23T05:17:34;15.40;55.70
50548;DHT22;38013;48.810;8.818;2023-03-23T05:20:09;15.40;55.80
50548;DHT22;38013;48.810;8.818;2023-03-23T05:22:44;15.40;55.70
50548;DHT22;38013;48.810;8.818;2023-03-23T05:25:14;15.40;55.70
50548;DHT22;38013;48.810;8.818;2023-03-23T05:27:44;15.30;55.70
50548;DHT22;38013;48.810;8.818;2023-03-23T05:30:28;15.40;55.70
50548;DHT22;38013;48.810;8.818;2023-03-23T05:32:55;15.40;55.70
50548;DHT22;38013;48.810;8.818;2023-03-23T05:35:35;15.40;55.80
50548;DHT22;38013;48.810;8.818;2023-03-23T05:38:02;15.40;55.70
50548;DHT22;38013;48.810;8.818;2023-03-23T05:40:29;15.30;55.70
50548;DHT22;38013;48.810;8.818;2023-03-23T05:43:00;15.30;55.70
50548;DHT22;38013;48.810;8.818;2023-03-23T05:45:40;15.30;55.90
50548;DHT22;38013;48.810;8.818;2023-03-23T05:48:06;15.40;55.90
50548;DHT22;38013;48.810;8.818;2023-03-23T05:50:32;15.40;55.90
50548;DHT22;38013;48.810;8.818;2023-03-23T05:52:59;15.40;56.00
50548;DHT22;38013;48.810;8.818;2023-03-23T05:55:25;15.40;56.00
50548;DHT22;38013;48.810;8.818;2023-03-23T05:58:07;15.40;56.10
50548;DHT22;38013;48.810;8.818;2023-03-23T06:00:35;15.40;56.20
50548;DHT22;38013;48.810;8.818;2023-03-23T06:03:12;15.30;56.10
50548;DHT22;38013;48.810;8.818;2023-03-23T06:05:55;15.40;56.20
50548;DHT22;38013;48.810;8.818;2023-03-23T06:08:27;15.40;56.30
50548;DHT22;38013;48.810;8.818;2023-03-23T06:10:55;15.30;56.50
50548;DHT22;38013;48.810;8.818;2023-03-23T06:13:21;15.30;56.60
50548;DHT22;38013;48.810;8.818;2023-03-23T06:15:49;15.30;56.70
50548;DHT22;38013;48.810;8.818;2023-03-23T06:18:29;15.30;56.60
50548;DHT22;38013;48.810;8.818;2023-03-23T06:21:05;15.30;56.80
50548;DHT22;38013;48.810;8.818;2023-03-23T06:24:01;15.30;57.10
50548;DHT22;38013;48.810;8.818;2023-03-23T06:26:35;15.30;57.30
50548;DHT22;38013;48.810;8.818;2023-03-23T06:29:07;15.20;57.50
50548;DHT22;38013;48.810;8.818;2023-03-23T06:31:42;15.20;57.60
50548;DHT22;38013;48.810;8.818;2023-03-23T06:34:10;15.20;58.00
50548;DHT22;38013;48.810;8.818;2023-03-23T06:36:56;15.10;58.20
50548;DHT22;38013;48.810;8.818;2023-03-23T06:39:31;15.10;58.70
50548;DHT22;38013;48.810;8.818;2023-03-23T06:42:11;15.10;59.00
50548;DHT22;38013;48.810;8.818;2023-03-23T06:44:42;15.10;59.10
50548;DHT22;38013;48.810;8.818;2023-03-23T06:47:10;15.10;59.30
50548;DHT22;38013;48.810;8.818;2023-03-23T06:49:41;15.00;59.40
50548;DHT22;38013;48.810;8.818;2023-03-23T06:52:33;15.00;59.60
50548;DHT22;38013;48.810;8.818;2023-03-23T06:54:58;15.00;59.90
50548;DHT22;38013;48.810;8.818;2023-03-23T06:57:24;15.00;60.20
50548;DHT22;38013;48.810;8.818;2023-03-23T06:59:51;15.00;60.30
50548;DHT22;38013;48.810;8.818;2023-03-23T07:02:17;15.00;60.60
50548;DHT22;38013;48.810;8.818;2023-03-23T07:04:47;15.00;60.60
50548;DHT22;38013;48.810;8.818;2023-03-23T07:07:21;15.00;60.70
50548;DHT22;38013;48.810;8.818;2023-03-23T07:09:52;15.00;60.70
50548;DHT22;38013;48.810;8.818;2023-03-23T07:12:22;15.00;60.60
50548;DHT22;38013;48.810;8.818;2023-03-23T07:14:49;15.00;60.50
50548;DHT22;38013;48.810;8.818;2023-03-23T07:17:15;15.00;60.70
50548;DHT22;38013;48.810;8.818;2023-03-23T07:19:58;15.00;60.80
50548;DHT22;38013;48.810;8.818;2023-03-23T07:22:25;15.00;60.90
50548;DHT22;38013;48.810;8.818;2023-03-23T07:24:58;15.00;61.00
50548;DHT22;38013;48.810;8.818;2023-03-23T07:27:30;15.00;61.20
50548;DHT22;38013;48.810;8.818;2023-03-23T07:29:59;15.00;61.30
50548;DHT22;38013;48.810;8.818;2023-03-23T07:32:26;15.00;61.30
50548;DHT22;38013;48.810;8.818;2023-03-23T07:34:53;15.00;61.50
50548;DHT22;38013;48.810;8.818;2023-03-23T07:37:30;15.00;61.50
50548;DHT22;38013;48.810;8.818;2023-03-23T07:39:58;15.00;61.70
50548;DHT22;38013;48.810;8.818;2023-03-23T07:42:24;15.00;61.70
50548;DHT22;38013;48.810;8.818;2023-03-23T07:44:57;15.00;61.90
50548;DHT22;38013;48.810;8.818;2023-03-23T07:47:23;15.00;62.00
50548;DHT22;38013;48.810;8.818;2023-03-23T07:49:49;15.10;61.90
50548;DHT22;38013;48.810;8.818;2023-03-23T07:52:26;15.10;62.10
50548;DHT22;38013;48.810;8.818;2023-03-23T07:54:52;15.20;62.00
50548;DHT22;38013;48.810;8.818;2023-03-23T07:57:41;15.20;61.80
50548;DHT22;38013;48.810;8.818;2023-03-23T08:00:07;15.30;61.80
50548;DHT22;38013;48.810;8.818;2023-03-23T08:02:55;15.30;61.70
50548;DHT22;38013;48.810;8.818;2023-03-23T08:05:26;15.30;61.90
50548;DHT22;38013;48.810;8.818;2023-03-23T08:08:27;15.40;61.60
50548;DHT22;38013;48.810;8.818;2023-03-23T08:11:26;15.40;61.50
50548;DHT22;38013;48.810;8.818;2023-03-23T08:14:10;15.40;61.30
50548;DHT22;38013;48.810;8.818;2023-03-23T08:16:59;15.50;61.40
50548;DHT22;38013;48.810;8.818;2023-03-23T08:19:54;15.50;61.30
50548;DHT22;38013;48.810;8.818;2023-03-23T08:22:55;15.60;61.20
50548;DHT22;38013;48.810;8.818;2023-03-23T08:25:41;15.60;61.30
50548;DHT22;38013;48.810;8.818;2023-03-23T08:28:20;15.60;61.30
50548;DHT22;38013;48.810;8.818;2023-03-23T08:31:09;15.60;61.20
50548;DHT22;38013;48.810;8.818;2023-03-23T08:33:51;15.60;61.10
50548;DHT22;38013;48.810;8.818;2023-03-23T08:36:35;15.70;61.20
50548;DHT22;38013;48.810;8.818;2023-03-23T08:39:21;15.70;61.30
50548;DHT22;38013;48.810;8.818;2023-03-23T08:42:15;15.70;61.20
50548;DHT22;38013;48.810;8.818;2023-03-23T08:45:05;15.70;61.30
50548;DHT22;38013;48.810;8.818;2023-03-23T08:47:58;15.70;61.20
50548;DHT22;38013;48.810;8.818;2023-03-23T08:50:39;15.80;61.30
50548;DHT22;38013;48.810;8.818;2023-03-23T08:53:15;15.80;61.00
50548;DHT22;38013;48.810;8.818;2023-03-23T08:55:50;15.80;61.10
50548;DHT22;38013;48.810;8.818;2023-03-23T08:58:16;15.80;61.00
50548;DHT22;38013;48.810;8.818;2023-03-23T09:01:02;15.80;61.00
50548;DHT22;38013;48.810;8.818;2023-03-23T09:03:48;15.80;61.00
50548;DHT22;38013;48.810;8.818;2023-03-23T09:06:44;15.80;60.90
50548;DHT22;38013;48.810;8.818;2023-03-23T09:09:11;15.80;60.90
50548;DHT22;38013;48.810;8.818;2023-03-23T09:11:38;15.90;61.10
50548;DHT22;38013;48.810;8.818;2023-03-23T09:14:05;15.90;61.10
50548;DHT22;38013;48.810;8.818;2023-03-23T09:16:32;15.90;61.10
50548;DHT22;38013;48.810;8.818;2023-03-23T09:18:59;15.90;61.00
50548;DHT22;38013;48.810;8.818;2023-03-23T09:21:27;16.00;61.00
50548;DHT22;38013;48.810;8.818;2023-03-23T09:23:53;16.00;61.10
50548;DHT22;38013;48.810;8.818;2023-03-23T09:26:24;16.10;61.20
50548;DHT22;38013;48.810;8.818;2023-03-23T09:28:51;16.10;61.00
50548;DHT22;38013;48.810;8.818;2023-03-23T09:31:18;16.10;60.70
50548;DHT22;38013;48.810;8.818;2023-03-23T09:33:47;16.20;60.60
50548;DHT22;38013;48.810;8.818;2023-03-23T09:36:17;16.20;60.70
50548;DHT22;38013;48.810;8.818;2023-03-23T09:38:49;16.20;61.00
50548;DHT22;38013;48.810;8.818;2023-03-23T09:44:07;16.30;61.30
50548;DHT22;38013;48.810;8.818;2023-03-23T09:49:32;16.40;62.20
50548;DHT22;38013;48.810;8.818;2023-03-23T09:52:16;16.50;61.80
50548;DHT22;38013;48.810;8.818;2023-03-23T09:54:46;16.50;62.80
50548;DHT22;38013;48.810;8.818;2023-03-23T10:00:30;16.50;63.10
50548;DHT22;38013;48.810;8.818;2023-03-23T10:03:15;16.60;62.80
50548;DHT22;38013;48.810;8.818;2023-03-23T10:05:53;16.60;63.50
50548;DHT22;38013;48.810;8.818;2023-03-23T10:08:23;16.70;63.30
50548;DHT22;38013;48.810;8.818;2023-03-23T10:16:27;16.80;62.60
50548;DHT22;38013;48.810;8.818;2023-03-23T10:21:57;17.00;62.50
50548;DHT22;38013;48.810;8.818;2023-03-23T10:24:35;17.00;62.50
50548;DHT22;38013;48.810;8.818;2023-03-23T10:27:19;17.10;62.10
50548;DHT22;38013;48.810;8.818;2023-03-23T10:29:59;17.10;61.60
50548;DHT22;38013;48.810;8.818;2023-03-23T10:32:53;17.20;62.10
50548;DHT22;38013;48.810;8.818;2023-03-23T10:35:26;17.10;61.80
50548;DHT22;38013;48.810;8.818;2023-03-23T10:38:03;17.10;61.40
50548;DHT22;38013;48.810;8.818;2023-03-23T10:40:32;17.10;61.30
50548;DHT22;38013;48.810;8.818;2023-03-23T10:43:09;17.00;61.20
50548;DHT22;38013;48.810;8.818;2023-03-23T10:45:34;17.00;61.20
50548;DHT22;38013;48.810;8.818;2023-03-23T10:50:41;16.90;61.80
50548;DHT22;38013;48.810;8.818;2023-03-23T10:53:26;16.90;61.60
50548;DHT22;38013;48.810;8.818;2023-03-23T10:55:58;16.90;62.10
50548;DHT22;38013;48.810;8.818;2023-03-23T10:58:35;16.80;61.80
50548;DHT22;38013;48.810;8.818;2023-03-23T11:01:04;16.80;62.10
50548;DHT22;38013;48.810;8.818;2023-03-23T11:03:37;16.80;62.20
50548;DHT22;38013;48.810;8.818;2023-03-23T11:06:09;16.90;62.20
50548;DHT22;38013;48.810;8.818;2023-03-23T11:08:55;16.90;62.10
50548;DHT22;38013;48.810;8.818;2023-03-23T11:11:29;16.80;62.40
50548;DHT22;38013;48.810;8.818;2023-03-23T11:14:01;16.80;62.00
50548;DHT22;38013;48.810;8.818;2023-03-23T11:16:31;16.90;62.60
50548;DHT22;38013;48.810;8.818;2023-03-23T11:19:13;16.90;62.80
50548;DHT22;38013;48.810;8.818;2023-03-23T11:21:40;17.00;62.80
50548;DHT22;38013;48.810;8.818;2023-03-23T11:24:12;17.00;62.50
50548;DHT22;38013;48.810;8.818;2023-03-23T11:26:38;17.10;62.20
50548;DHT22;38013;48.810;8.818;2023-03-23T11:29:10;17.20;62.50
50548;DHT22;38013;48.810;8.818;2023-03-23T11:31:41;17.20;62.00
50548;DHT22;38013;48.810;8.818;2023-03-23T11:34:44;17.30;61.80
50548;DHT22;38013;48.810;8.818;2023-03-23T11:37:29;17.30;62.00
50548;DHT22;38013;48.810;8.818;2023-03-23T11:40:01;17.40;61.30
50548;DHT22;38013;48.810;8.818;2023-03-23T11:45:33;17.60;61.40
50548;DHT22;38013;48.810;8.818;2023-03-23T11:50:51;17.70;61.20
50548;DHT22;38013;48.810;8.818;2023-03-23T11:56:37;17.80;61.70
50548;DHT22;38013;48.810;8.818;2023-03-23T11:59:02;17.80;61.70
50548;DHT22;38013;48.810;8.818;2023-03-23T12:01:37;17.80;61.10
50548;DHT22;38013;48.810;8.818;2023-03-23T12:09:25;17.80;60.40
50548;DHT22;38013;48.810;8.818;2023-03-23T12:23:41;17.70;60.00
50548;DHT22;38013;48.810;8.818;2023-03-23T12:35:07;17.60;60.40
50548;DHT22;38013;48.810;8.818;2023-03-23T12:38:02;17.70;60.60
50548;DHT22;38013;48.810;8.818;2023-03-23T12:52:04;18.10;59.10
50548;DHT22;38013;48.810;8.818;2023-03-23T12:54:54;18.10;58.80
50548;DHT22;38013;48.810;8.818;2023-03-23T12:57:49;18.20;58.70
50548;DHT22;38013;48.810;8.818;2023-03-23T13:05:40;18.30;58.80
50548;DHT22;38013;48.810;8.818;2023-03-23T13:08:22;18.30;58.50
50548;DHT22;38013;48.810;8.818;2023-03-23T13:11:13;18.30;57.80
50548;DHT22;38013;48.810;8.818;2023-03-23T13:13:58;18.30;57.50
50548;DHT22;38013;48.810;8.818;2023-03-23T13:16:39;18.40;56.50
50548;DHT22;38013;48.810;8.818;2023-03-23T13:22:43;18.30;57.50
50548;DHT22;38013;48.810;8.818;2023-03-23T13:25:30;18.30;57.80
50548;DHT22;38013;48.810;8.818;2023-03-23T13:28:05;18.30;57.30
50548;DHT22;38013;48.810;8.818;2023-03-23T13:30:31;18.30;57.50
50548;DHT22;38013;48.810;8.818;2023-03-23T13:33:06;18.30;57.50
50548;DHT22;38013;48.810;8.818;2023-03-23T13:35:35;18.30;57.30
50548;DHT22;38013;48.810;8.818;2023-03-23T13:38:23;18.30;57.00
50548;DHT22;38013;48.810;8.818;2023-03-23T13:40:52;18.20;56.50
50548;DHT22;38013;48.810;8.818;2023-03-23T13:43:31;18.30;56.70
50548;DHT22;38013;48.810;8.818;2023-03-23T13:46:06;18.20;56.80
50548;DHT22;38013;48.810;8.818;2023-03-23T13:49:17;18.20;57.20
50548;DHT22;38013;48.810;8.818;2023-03-23T13:51:56;18.10;56.80
50548;DHT22;38013;48.810;8.818;2023-03-23T13:54:41;18.10;57.30
50548;DHT22;38013;48.810;8.818;2023-03-23T13:57:33;18.00;57.20
50548;DHT22;38013;48.810;8.818;2023-03-23T14:05:45;18.00;56.90
50548;DHT22;38013;48.810;8.818;2023-03-23T14:10:58;17.90;57.40
50548;DHT22;38013;48.810;8.818;2023-03-23T14:13:30;17.90;57.50
50548;DHT22;38013;48.810;8.818;2023-03-23T14:18:55;17.90;57.60
50548;DHT22;38013;48.810;8.818;2023-03-23T14:21:33;17.90;57.60
50548;DHT22;38013;48.810;8.818;2023-03-23T14:24:03;17.90;58.00
50548;DHT22;38013;48.810;8.818;2023-03-23T14:26:34;18.00;58.20
50548;DHT22;38013;48.810;8.818;2023-03-23T14:29:02;18.00;58.40
50548;DHT22;38013;48.810;8.818;2023-03-23T14:31:29;18.00;58.90
50548;DHT22;38013;48.810;8.818;2023-03-23T14:33:56;18.20;58.20
50548;DHT22;38013;48.810;8.818;2023-03-23T14:36:24;18.20;57.70
50548;DHT22;38013;48.810;8.818;2023-03-23T14:39:18;18.20;57.60
50548;DHT22;38013;48.810;8.818;2023-03-23T14:41:47;18.30;57.70
50548;DHT22;38013;48.810;8.818;2023-03-23T14:44:16;18.40;57.80
50548;DHT22;38013;48.810;8.818;2023-03-23T14:46:45;18.40;57.70
50548;DHT22;38013;48.810;8.818;2023-03-23T14:49:15;18.40;57.40
50548;DHT22;38013;48.810;8.818;2023-03-23T14:51:53;18.50;57.40
50548;DHT22;38013;48.810;8.818;2023-03-23T14:54:26;18.60;57.20
50548;DHT22;38013;48.810;8.818;2023-03-23T14:56:54;18.60;57.30
50548;DHT22;38013;48.810;8.818;2023-03-23T14:59:20;18.60;57.40
50548;DHT22;38013;48.810;8.818;2023-03-23T15:01:49;18.60;57.00
50548;DHT22;38013;48.810;8.818;2023-03-23T15:04:24;18.80;57.70
50548;DHT22;38013;48.810;8.818;2023-03-23T15:06:56;18.80;56.60
50548;DHT22;38013;48.810;8.818;2023-03-23T15:09:25;18.80;56.10
50548;DHT22;38013;48.810;8.818;2023-03-23T15:12:02;18.80;56.10
50548;DHT22;38013;48.810;8.818;2023-03-23T15:14:32;18.90;55.70
50548;DHT22;38013;48.810;8.818;2023-03-23T15:17:21;18.80;55.90
50548;DHT22;38013;48.810;8.818;2023-03-23T15:19:51;18.80;55.40
50548;DHT22;38013;48.810;8.818;2023-03-23T15:22:26;18.90;55.30
50548;DHT22;38013;48.810;8.818;2023-03-23T15:25:24;18.90;55.10
50548;DHT22;38013;48.810;8.818;2023-03-23T15:27:57;18.90;55.30
50548;DHT22;38013;48.810;8.818;2023-03-23T15:30:37;18.80;55.30
50548;DHT22;38013;48.810;8.818;2023-03-23T15:33:13;18.80;55.30
50548;DHT22;38013;48.810;8.818;2023-03-23T15:35:44;18.80;54.90
50548;DHT22;38013;48.810;8.818;2023-03-23T15:38:29;18.80;55.00
50548;DHT22;38013;48.810;8.818;2023-03-23T15:40:58;18.80;54.10
50548;DHT22;38013;48.810;8.818;2023-03-23T15:43:56;18.80;54.50
50548;DHT22;38013;48.810;8.818;2023-03-23T15:46:25;18.80;53.60
50548;DHT22;38013;48.810;8.818;2023-03-23T15:51:26;18.90;53.60
50548;DHT22;38013;48.810;8.818;2023-03-23T15:53:54;18.90;53.90
50548;DHT22;38013;48.810;8.818;2023-03-23T15:56:21;18.90;53.80
50548;DHT22;38013;48.810;8.818;2023-03-23T15:58:48;18.80;53.40
50548;DHT22;38013;48.810;8.818;2023-03-23T16:01:18;18.80;53.10
50548;DHT22;38013;48.810;8.818;2023-03-23T16:04:12;18.80;52.60
50548;DHT22;38013;48.810;8.818;2023-03-23T16:06:42;18.70;52.40
50548;DHT22;38013;48.810;8.818;2023-03-23T16:09:14;18.80;52.40
50548;DHT22;38013;48.810;8.818;2023-03-23T16:11:42;18.70;52.10
50548;DHT22;38013;48.810;8.818;2023-03-23T16:14:09;18.70;52.50
50548;DHT22;38013;48.810;8.818;2023-03-23T16:19:11;18.60;52.40
50548;DHT22;38013;48.810;8.818;2023-03-23T16:21:39;18.60;52.30
50548;DHT22;38013;48.810;8.818;2023-03-23T16:24:08;18.60;52.40
50548;DHT22;38013;48.810;8.818;2023-03-23T16:26:35;18.60;52.30
50548;DHT22;38013;48.810;8.818;2023-03-23T16:29:09;18.50;52.20
50548;DHT22;38013;48.810;8.818;2023-03-23T16:31:57;18.50;51.90
50548;DHT22;38013;48.810;8.818;2023-03-23T16:34:24;18.50;52.20
50548;DHT22;38013;48.810;8.818;2023-03-23T16:36:54;18.40;52.10
50548;DHT22;38013;48.810;8.818;2023-03-23T16:39:21;18.50;52.20
50548;DHT22;38013;48.810;8.818;2023-03-23T16:41:48;18.40;51.90
50548;DHT22;38013;48.810;8.818;2023-03-23T16:44:15;18.40;51.80
50548;DHT22;38013;48.810;8.818;2023-03-23T16:46:43;18.40;51.80
50548;DHT22;38013;48.810;8.818;2023-03-23T16:49:09;18.30;51.70
50548;DHT22;38013;48.810;8.818;2023-03-23T16:51:36;18.30;51.60
50548;DHT22;38013;48.810;8.818;2023-03-23T16:54:03;18.20;51.80
50548;DHT22;38013;48.810;8.818;2023-03-23T16:56:30;18.20;51.80
50548;DHT22;38013;48.810;8.818;2023-03-23T16:58:57;18.20;51.90
50548;DHT22;38013;48.810;8.818;2023-03-23T17:01:24;18.10;52.00
50548;DHT22;38013;48.810;8.818;2023-03-23T17:03:51;18.10;52.00
50548;DHT22;38013;48.810;8.818;2023-03-23T17:06:19;18.00;51.90
50548;DHT22;38013;48.810;8.818;2023-03-23T17:08:46;18.00;51.90
50548;DHT22;38013;48.810;8.818;2023-03-23T17:11:13;18.00;52.00
50548;DHT22;38013;48.810;8.818;2023-03-23T17:13:40;18.00;52.30
50548;DHT22;38013;48.810;8.818;2023-03-23T17:16:07;17.90;52.30
50548;DHT22;38013;48.810;8.818;2023-03-23T17:18:34;17.90;52.30
50548;DHT22;38013;48.810;8.818;2023-03-23T17:21:01;17.90;52.20
50548;DHT22;38013;48.810;8.818;2023-03-23T17:23:28;17.90;52.30
50548;DHT22;38013;48.810;8.818;2023-03-23T17:25:55;17.90;52.30
50548;DHT22;38013;48.810;8.818;2023-03-23T17:28:22;17.80;52.50
50548;DHT22;38013;48.810;8.818;2023-03-23T17:30:51;17.70;52.50
50548;DHT22;38013;48.810;8.818;2023-03-23T17:33:18;17.80;52.60
50548;DHT22;38013;48.810;8.818;2023-03-23T17:35:46;17.80;52.70
50548;DHT22;38013;48.810;8.818;2023-03-23T17:38:17;17.70;52.80
50548;DHT22;38013;48.810;8.818;2023-03-23T17:40:44;17.60;52.90
50548;DHT22;38013;48.810;8.818;2023-03-23T17:43:10;17.60;53.10
50548;DHT22;38013;48.810;8.818;2023-03-23T17:45:37;17.60;53.20
50548;DHT22;38013;48.810;8.818;2023-03-23T17:48:04;17.50;53.30
50548;DHT22;38013;48.810;8.818;2023-03-23T17:50:34;17.50;53.30
50548;DHT22;38013;48.810;8.818;2023-03-23T17:53:01;17.40;53.40